Time;durP1;ratioP1;P1;durP2;ratioP2;P2;SDS_P1;SDS_P2;PMS_P1;PMS_P2;Temp;Humidity;BMP_temperature;BMP_pressure;BME280_temperature;BME280_humidity;BME280_pressure;Samples;Min_cycle;Max_cycle;Signal;HPM_P1;HPM_P2
2021/07/09 05:02:58;;;;;;;12.45;4.87;;;;;;;36.45;28.63;101487.26;1831881;76;27890;-70
2021/07/09 05:05:31;;;;;;;6.10;3.77;;;;;;;36.79;28.02;101489.30;1791846;77;22300;-70
2021/07/09 05:08:05;;;;;;;6.33;4.20;;;;;;;37.23;27.61;101491.55;1796390;77;21269;-68
2021/07/09 05:10:38;;;;;;;8.33;4.47;;;;;;;37.81;27.00;101482.89;1744302;80;21228;-66
2021/07/09 05:13:13;;;;;;;5.80;4.28;;;;;;;38.33;26.31;101478.84;1740079;81;22245;-67
2021/07/09 05:15:46;;;;;;;10.58;4.78;;;;;;;38.74;25.75;101479.77;1726268;81;21341;-71
2021/07/09 05:18:20;;;;;;;7.33;4.25;;;;;;;39.09;25.25;101476.52;1718978;82;21450;-66
2021/07/09 05:20:55;;;;;;;4.85;4.35;;;;;;;39.46;24.76;101471.56;1715469;81;21297;-72
2021/07/09 05:23:28;;;;;;;5.72;4.50;;;;;;;39.74;24.46;101476.06;1720750;82;21181;-66
2021/07/09 05:26:04;;;;;;;10.43;4.65;;;;;;;40.17;24.12;101466.48;1717025;82;21491;-69
2021/07/09 05:28:38;;;;;;;8.48;5.12;;;;;;;40.67;23.68;101472.91;1722430;82;21260;-69
2021/07/09 05:31:12;;;;;;;6.62;4.78;;;;;;;41.07;23.05;101473.94;1724344;81;21590;-68
2021/07/09 05:33:46;;;;;;;7.28;5.12;;;;;;;41.24;22.91;101472.71;1727388;82;21339;-70
2021/07/09 05:36:22;;;;;;;6.83;4.75;;;;;;;41.44;22.14;101468.10;1724891;81;21698;-68
2021/07/09 05:38:55;;;;;;;8.48;4.80;;;;;;;41.64;22.22;101464.84;1719438;82;21310;-68
2021/07/09 05:41:28;;;;;;;6.05;4.65;;;;;;;42.00;21.96;101458.41;1722059;82;21303;-69
2021/07/09 05:44:02;;;;;;;5.60;5.03;;;;;;;42.34;21.49;101455.82;1721223;81;21256;-66
2021/07/09 05:46:36;;;;;;;6.33;5.40;;;;;;;42.74;21.09;101456.00;1722182;82;21779;-66
2021/07/09 05:49:09;;;;;;;7.75;5.42;;;;;;;43.10;20.59;101457.66;1722343;81;21331;-69
2021/07/09 05:51:43;;;;;;;9.50;5.47;;;;;;;43.34;20.02;101463.50;1720710;82;21358;-65
2021/07/09 05:54:16;;;;;;;6.03;5.42;;;;;;;43.33;19.98;101454.41;1692224;82;21295;-69
2021/07/09 05:56:51;;;;;;;9.38;5.05;;;;;;;43.49;19.78;101454.72;1723933;81;21315;-65
2021/07/09 05:59:25;;;;;;;9.68;5.53;;;;;;;43.78;19.43;101458.16;1721118;81;21283;-68
2021/07/09 06:01:58;;;;;;;6.45;5.25;;;;;;;44.12;19.24;101455.27;1723619;82;21378;-66
2021/07/09 06:04:31;;;;;;;9.60;5.40;;;;;;;44.41;19.10;101455.83;1711230;82;21763;-70
2021/07/09 06:07:05;;;;;;;7.12;5.22;;;;;;;44.46;18.73;101456.48;1714781;82;21772;-65
2021/07/09 06:09:40;;;;;;;7.53;4.80;;;;;;;44.52;18.58;101459.88;1718330;82;21624;-66
2021/07/09 06:12:13;;;;;;;10.38;5.47;;;;;;;44.77;18.32;101462.45;1716245;82;21310;-66
2021/07/09 06:14:47;;;;;;;6.60;5.20;;;;;;;45.01;18.07;101460.41;1716173;82;21309;-65
2021/07/09 06:17:20;;;;;;;11.48;5.90;;;;;;;45.21;17.93;101456.84;1686630;82;21307;-66
2021/07/09 06:19:54;;;;;;;8.15;5.30;;;;;;;45.41;17.89;101457.92;1714425;82;21295;-64
2021/07/09 06:22:27;;;;;;;7.22;5.12;;;;;;;45.43;17.98;101450.91;1711347;82;21310;-69
2021/07/09 06:25:00;;;;;;;6.42;5.05;;;;;;;45.53;17.77;101452.42;1712923;82;21292;-65
2021/07/09 06:27:33;;;;;;;6.72;4.90;;;;;;;45.74;17.41;101455.95;1716715;82;21364;-67
2021/07/09 06:30:08;;;;;;;8.70;4.83;;;;;;;45.81;17.27;101450.66;1720998;82;21316;-66
2021/07/09 06:32:41;;;;;;;5.47;4.85;;;;;;;45.89;17.11;101448.37;1715073;82;21283;-68
2021/07/09 06:35:14;;;;;;;22.37;6.22;;;;;;;45.96;17.29;101445.86;1710871;82;21351;-69
2021/07/09 06:37:49;;;;;;;8.68;5.28;;;;;;;45.92;16.90;101442.14;1714988;82;21866;-67
2021/07/09 06:40:24;;;;;;;7.80;5.10;;;;;;;45.71;17.16;101443.39;1710412;82;21370;-70
2021/07/09 06:42:56;;;;;;;7.62;5.10;;;;;;;45.78;17.21;101447.78;1715566;82;21336;-66
2021/07/09 06:45:30;;;;;;;8.53;5.37;;;;;;;45.96;17.17;101444.48;1717552;82;21894;-68
2021/07/09 06:48:07;;;;;;;9.00;5.62;;;;;;;45.98;17.04;101445.50;1708953;82;21411;-68
2021/07/09 06:50:40;;;;;;;6.47;5.25;;;;;;;46.18;17.19;101438.23;1710410;82;21310;-67
2021/07/09 06:53:14;;;;;;;5.53;5.03;;;;;;;46.46;16.85;101435.80;1715022;82;21183;-66
2021/07/09 06:55:49;;;;;;;5.83;5.03;;;;;;;46.81;16.67;101438.06;1709650;82;22983;-66
2021/07/09 06:58:24;;;;;;;8.00;4.75;;;;;;;46.85;16.27;101429.26;1715081;82;21188;-67
2021/07/09 07:00:57;;;;;;;10.85;5.42;;;;;;;46.88;16.41;101433.53;1717807;82;21306;-65
2021/07/09 07:03:31;;;;;;;14.33;5.80;;;;;;;47.17;16.48;101423.47;1711882;82;21310;-62
2021/07/09 07:06:08;;;;;;;5.42;4.60;;;;;;;47.34;16.39;101423.75;1708241;82;21304;-64
2021/07/09 07:08:41;;;;;;;7.20;5.15;;;;;;;47.62;16.29;101420.93;1706402;82;21292;-64
2021/07/09 07:11:14;;;;;;;6.55;5.33;;;;;;;47.96;15.77;101417.45;1707189;82;21293;-68
2021/07/09 07:13:48;;;;;;;7.35;5.12;;;;;;;48.17;15.54;101424.92;1704195;82;21205;-67
2021/07/09 07:16:23;;;;;;;8.03;5.40;;;;;;;48.43;15.30;101422.91;1705547;82;21282;-66
2021/07/09 07:18:56;;;;;;;7.33;5.37;;;;;;;48.67;15.16;101415.72;1702463;82;21267;-67
2021/07/09 07:21:31;;;;;;;13.40;6.05;;;;;;;48.89;14.94;101416.99;1701306;82;21367;-65
2021/07/09 07:24:05;;;;;;;7.65;5.53;;;;;;;48.98;15.11;101414.78;1710894;82;21304;-64
2021/07/09 07:26:38;;;;;;;8.05;5.30;;;;;;;48.89;14.60;101408.07;1704347;82;21290;-66
2021/07/09 07:29:11;;;;;;;8.15;5.85;;;;;;;48.68;14.88;101408.20;1705977;82;21306;-68
2021/07/09 07:31:44;;;;;;;6.75;5.30;;;;;;;48.78;14.81;101407.58;1705421;82;21233;-72
2021/07/09 07:34:18;;;;;;;6.20;5.47;;;;;;;48.66;14.86;101402.98;1705350;82;21376;-66
2021/07/09 07:36:51;;;;;;;12.63;5.65;;;;;;;48.54;15.02;101402.55;1706641;83;21222;-67
2021/07/09 07:39:24;;;;;;;12.98;5.72;;;;;;;48.68;15.07;101402.03;1699523;82;21319;-68
2021/07/09 07:41:58;;;;;;;9.83;5.97;;;;;;;48.89;14.92;101401.70;1706730;82;21168;-66
2021/07/09 07:44:31;;;;;;;12.55;6.90;;;;;;;48.95;14.69;101399.64;1702886;82;21387;-71
2021/07/09 07:47:05;;;;;;;7.62;5.85;;;;;;;48.92;14.79;101402.36;1707578;82;21811;-63
2021/07/09 07:49:38;;;;;;;7.53;5.47;;;;;;;49.00;14.64;101396.56;1709809;82;21339;-63
2021/07/09 07:52:12;;;;;;;5.80;5.20;;;;;;;49.08;14.66;101391.94;1699439;82;21179;-67
2021/07/09 07:54:45;;;;;;;9.05;5.42;;;;;;;49.15;14.71;101390.67;1702483;82;21894;-65
2021/07/09 07:57:20;;;;;;;10.30;5.47;;;;;;;49.18;14.51;101394.90;1704431;82;21193;-66
2021/07/09 07:59:53;;;;;;;7.20;5.65;;;;;;;49.16;14.72;101386.70;1686609;82;21859;-64
2021/07/09 08:02:27;;;;;;;5.75;5.25;;;;;;;49.13;14.56;101388.25;1707382;83;21331;-66
2021/07/09 08:05:01;;;;;;;7.22;5.45;;;;;;;49.05;14.62;101382.36;1754372;79;21705;-64
2021/07/09 08:07:34;;;;;;;8.75;5.45;;;;;;;48.90;14.65;101379.08;1716612;81;21279;-67
2021/07/09 08:10:10;;;;;;;6.15;5.40;;;;;;;48.55;15.15;101376.37;1759273;79;21316;-66
2021/07/09 08:12:44;;;;;;;7.22;5.28;;;;;;;48.41;15.46;101371.89;1762795;79;21259;-65
2021/07/09 08:15:18;;;;;;;5.75;5.17;;;;;;;48.32;15.07;101367.72;1768639;79;21192;-70
2021/07/09 08:17:51;;;;;;;8.33;5.60;;;;;;;48.04;14.83;101369.23;1768527;79;21759;-69
2021/07/09 08:20:25;;;;;;;9.33;5.33;;;;;;;47.61;14.71;101375.72;1770057;79;21152;-66
2021/07/09 08:22:58;;;;;;;9.70;5.10;;;;;;;46.90;15.18;101370.80;1763210;79;21177;-65
2021/07/09 08:25:31;;;;;;;22.25;6.17;;;;;;;46.54;16.22;101364.23;1728647;82;21203;-68
2021/07/09 08:28:05;;;;;;;22.90;6.55;;;;;;;46.47;15.90;101362.64;1708233;83;21308;-66
2021/07/09 08:30:38;;;;;;;9.30;5.03;;;;;;;46.14;16.21;101355.66;1712427;83;21749;-72
2021/07/09 08:33:11;;;;;;;6.05;5.10;;;;;;;45.78;16.47;101359.23;1709989;83;21311;-69
2021/07/09 08:35:45;;;;;;;11.65;5.67;;;;;;;45.43;16.67;101355.48;1709886;83;21182;-68
2021/07/09 08:38:18;;;;;;;5.30;4.80;;;;;;;45.42;17.20;101355.27;1726844;82;21306;-73
2021/07/09 08:40:51;;;;;;;8.20;5.60;;;;;;;45.37;17.14;101351.92;1714505;82;21275;-73
2021/07/09 08:43:26;;;;;;;7.70;5.35;;;;;;;45.29;16.95;101350.05;1713870;81;21307;-69
2021/07/09 08:45:59;;;;;;;12.93;5.25;;;;;;;45.24;17.34;101351.65;1725571;82;21977;-68
2021/07/09 08:48:32;;;;;;;7.67;5.03;;;;;;;45.11;17.88;101345.28;1724543;82;21925;-69
2021/07/09 08:51:05;;;;;;;7.35;5.08;;;;;;;45.05;18.09;101343.08;1713953;82;21347;-69
2021/07/09 08:53:40;;;;;;;7.87;5.35;;;;;;;45.01;17.83;101346.27;1715571;83;21303;-68
2021/07/09 08:56:15;;;;;;;14.60;5.80;;;;;;;44.77;17.26;101340.06;1720763;82;21302;-67
2021/07/09 08:58:47;;;;;;;6.75;5.28;;;;;;;44.46;17.40;101346.59;1729358;80;21735;-66
2021/07/09 09:01:20;;;;;;;8.18;5.33;;;;;;;44.02;17.76;101343.86;1712472;83;21820;-67
2021/07/09 09:04:07;;;;;;;13.75;5.40;;;;;;;43.73;18.12;101341.10;1704108;83;21292;-69
2021/07/09 09:06:40;;;;;;;10.98;5.42;;;;;;;43.60;18.16;101342.09;1709334;83;21296;-67
2021/07/09 09:09:18;;;;;;;9.35;5.80;;;;;;;43.16;18.62;101341.40;1711176;83;21169;-70
2021/07/09 09:12:14;;;;;;;7.28;6.17;;;;;;;42.93;18.64;101335.87;1701767;82;21259;-65
2021/07/09 09:14:49;;;;;;;8.75;5.87;;;;;;;42.66;19.25;101335.62;1697590;83;21283;-66
2021/07/09 09:17:40;;;;;;;8.75;5.20;;;;;;;41.98;19.76;101328.63;1701394;82;21920;-65
2021/07/09 09:20:18;;;;;;;8.45;6.10;;;;;;;41.52;19.31;101331.28;1697705;83;21290;-65
2021/07/09 09:22:55;;;;;;;9.10;5.95;;;;;;;41.22;19.38;101330.70;1697946;82;21817;-65
2021/07/09 09:25:30;;;;;;;11.48;6.08;;;;;;;40.81;20.00;101329.52;1698614;83;21227;-64
2021/07/09 09:28:06;;;;;;;9.68;5.62;;;;;;;40.20;20.47;101336.11;1710886;82;21153;-67
2021/07/09 09:30:41;;;;;;;8.03;5.75;;;;;;;39.83;21.28;101334.97;1703360;82;21204;-64
2021/07/09 09:33:15;;;;;;;9.05;5.55;;;;;;;39.72;21.98;101334.92;1694058;82;21297;-64
2021/07/09 09:35:56;;;;;;;8.03;5.55;;;;;;;39.53;22.34;101331.67;1693690;82;21400;-66
2021/07/09 09:38:30;;;;;;;6.75;5.37;;;;;;;39.44;21.32;101327.19;1701652;82;21262;-66
2021/07/09 09:41:04;;;;;;;6.03;5.42;;;;;;;39.24;20.92;101324.29;1703975;83;21341;-67
2021/07/09 09:43:37;;;;;;;8.88;5.70;;;;;;;39.06;20.80;101312.78;1692003;82;21141;-63
2021/07/09 09:46:10;;;;;;;7.75;5.67;;;;;;;39.02;21.67;101318.61;1693511;82;21354;-68
2021/07/09 09:48:47;;;;;;;7.37;5.78;;;;;;;38.99;20.92;101319.20;1719894;82;21813;-69
2021/07/09 09:51:29;;;;;;;8.38;5.67;;;;;;;38.76;20.97;101317.41;1698326;82;21337;-66
2021/07/09 09:54:05;;;;;;;8.23;5.13;;;;;;;38.55;21.62;101315.48;1722587;81;21946;-68
2021/07/09 09:56:51;;;;;;;7.33;6.10;;;;;;;38.43;22.05;101321.17;1716740;81;22539;-64
2021/07/09 09:59:23;;;;;;;6.35;5.22;;;;;;;38.09;22.39;101323.52;1716315;81;21762;-67
2021/07/09 10:01:59;;;;;;;8.98;6.17;;;;;;;37.90;22.39;101308.17;1709882;83;21286;-66
2021/07/09 10:04:33;;;;;;;8.08;6.08;;;;;;;37.91;22.93;101316.62;1708926;83;21373;-70
2021/07/09 10:07:06;;;;;;;9.90;6.25;;;;;;;37.85;23.39;101311.78;1699079;82;21251;-68
2021/07/09 10:09:40;;;;;;;10.78;6.40;;;;;;;37.61;23.85;101315.04;1691898;83;21265;-68
2021/07/09 10:12:22;;;;;;;9.23;6.22;;;;;;;37.36;23.85;101313.34;1641484;83;21307;-66
2021/07/09 10:14:51;;;;;;;6.67;5.97;;;;;;;37.09;24.35;101312.50;1754441;79;21287;-64
2021/07/09 10:17:27;;;;;;;7.47;5.97;;;;;;;36.87;24.55;101314.86;1748934;81;21909;-69
2021/07/09 10:20:00;;;;;;;10.35;6.67;;;;;;;36.78;24.72;101312.45;1751789;79;21355;-67
2021/07/09 10:22:35;;;;;;;8.83;5.97;;;;;;;36.81;25.07;101301.52;1749553;81;21306;-68
2021/07/09 10:25:12;;;;;;;10.32;6.40;;;;;;;36.86;25.44;101305.58;1711034;81;21144;-67
2021/07/09 10:27:46;;;;;;;10.03;6.03;;;;;;;36.76;25.11;101306.47;1742838;79;21340;-68
2021/07/09 10:30:19;;;;;;;10.82;6.33;;;;;;;36.50;24.92;101298.20;1756189;79;21918;-67
2021/07/09 10:32:53;;;;;;;;;;;;;;;36.31;25.44;101299.38;1722576;82;21363;-68
2021/07/09 10:35:41;;;;;;;11.63;6.47;;;;;;;36.20;25.99;101291.00;1701317;82;20289;-68
2021/07/09 10:38:19;;;;;;;8.15;6.33;;;;;;;36.16;26.35;101296.73;1753634;79;21326;-69
2021/07/09 10:40:52;;;;;;;8.25;5.78;;;;;;;36.15;26.61;101307.38;1757915;79;21284;-69
2021/07/09 10:43:25;;;;;;;36.85;7.55;;;;;;;36.00;25.70;101304.72;1747421;79;21295;-69
2021/07/09 10:45:59;;;;;;;7.12;6.05;;;;;;;35.84;25.42;101293.05;1749005;79;22502;-69
2021/07/09 10:48:35;;;;;;;8.20;5.62;;;;;;;35.81;25.07;101294.14;1719434;81;21264;-73
2021/07/09 10:51:08;;;;;;;9.80;6.10;;;;;;;35.78;25.09;101288.70;1741311;81;21292;-71
2021/07/09 10:53:41;;;;;;;;;;;;;;;35.81;25.65;101277.25;1718054;81;21319;-67
2021/07/09 10:56:14;;;;;;;11.28;6.35;;;;;;;35.69;26.78;101278.11;1749777;79;20286;-68
2021/07/09 10:58:47;;;;;;;7.90;5.95;;;;;;;35.51;26.92;101277.36;1718754;81;21307;-67
2021/07/09 11:01:28;;;;;;;9.05;5.67;;;;;;;35.36;27.09;101273.81;1753300;80;21287;-68
2021/07/09 11:04:11;;;;;;;12.80;6.50;;;;;;;35.26;27.11;101269.73;1758135;79;21742;-63
2021/07/09 11:06:44;;;;;;;9.83;6.05;;;;;;;35.19;27.53;101260.50;1748892;81;21288;-68
2021/07/09 11:09:18;;;;;;;10.32;5.80;;;;;;;35.31;27.73;101263.75;1748916;81;21174;-66
2021/07/09 11:11:53;;;;;;;9.23;6.08;;;;;;;35.43;27.15;101262.08;1748737;79;22050;-69
2021/07/09 11:14:37;;;;;;;12.35;5.65;;;;;;;35.41;27.19;101268.36;1766581;80;21338;-68
2021/07/09 11:17:18;;;;;;;;;;;;;;;35.33;27.14;101261.56;1764218;80;21971;-67
2021/07/09 11:19:51;;;;;;;6.33;5.55;;;;;;;35.29;26.66;101259.12;1762410;79;20364;-68
2021/07/09 11:22:26;;;;;;;10.13;6.17;;;;;;;35.11;26.32;101264.59;1722416;80;21275;-66
2021/07/09 11:24:59;;;;;;;14.95;6.15;;;;;;;34.97;26.67;101253.96;1767323;80;21251;-68
2021/07/09 11:27:32;;;;;;;7.97;5.97;;;;;;;34.88;26.12;101253.42;1689299;82;21287;-69
2021/07/09 11:30:07;;;;;;;7.42;6.15;;;;;;;34.78;26.82;101252.05;1710952;82;21190;-66
2021/07/09 11:32:40;;;;;;;8.48;6.08;;;;;;;34.68;27.35;101244.71;1704242;83;21316;-65
2021/07/09 11:35:13;;;;;;;15.72;5.90;;;;;;;34.67;27.90;101239.55;1710681;83;21300;-65
2021/07/09 11:37:45;;;;;;;8.08;5.97;;;;;;;34.69;28.02;101234.12;1710733;83;21925;-65
2021/07/09 11:40:19;;;;;;;;;;;;;;;34.73;28.01;101238.48;1711118;82;21298;-64
2021/07/09 11:42:53;;;;;;;9.58;6.17;;;;;;;34.71;27.80;101231.94;1720586;82;20327;-65
2021/07/09 11:45:30;;;;;;;8.68;6.03;;;;;;;34.69;27.56;101230.03;1721060;81;21297;-66
2021/07/09 11:48:04;;;;;;;9.60;6.17;;;;;;;34.70;27.46;101231.68;1717092;82;21160;-66
2021/07/09 11:50:37;;;;;;;11.88;6.10;;;;;;;34.63;26.60;101231.14;1698816;82;21212;-65
2021/07/09 11:53:15;;;;;;;11.33;5.47;;;;;;;34.49;26.79;101219.92;1706540;83;21393;-67
2021/07/09 11:55:48;;;;;;;10.18;5.95;;;;;;;34.27;27.60;101207.12;1708880;83;21304;-67
2021/07/09 11:58:23;;;;;;;8.30;6.12;;;;;;;34.11;28.30;101216.33;1733240;82;21306;-67
2021/07/09 12:00:57;;;;;;;12.28;5.97;;;;;;;34.09;28.43;101206.81;1704638;83;21284;-67
2021/07/09 12:03:30;;;;;;;8.53;5.55;;;;;;;34.06;27.73;101202.73;1696354;83;21164;-68
2021/07/09 12:06:04;;;;;;;;;;;;;;;34.00;27.77;101207.86;1699795;82;21257;-68
2021/07/09 12:08:37;;;;;;;8.05;6.20;;;;;;;33.88;27.34;101195.06;1677865;84;20223;-70
2021/07/09 12:11:10;;;;;;;9.20;6.12;;;;;;;33.76;27.53;101199.91;1723137;82;21215;-67
2021/07/09 12:13:44;;;;;;;7.15;6.12;;;;;;;33.67;28.15;101196.91;1706451;83;21307;-68
2021/07/09 12:16:16;;;;;;;15.15;6.25;;;;;;;33.58;28.45;101194.95;1691665;83;21658;-67
2021/07/09 12:18:55;;;;;;;6.12;5.53;;;;;;;33.53;29.07;101191.69;1686471;83;21187;-68
2021/07/09 12:21:28;;;;;;;8.35;5.53;;;;;;;33.47;28.23;101195.41;1706604;83;21341;-67
2021/07/09 12:24:05;;;;;;;13.70;5.58;;;;;;;33.43;27.61;101187.53;1708046;83;21790;-66
2021/07/09 12:26:39;;;;;;;7.12;5.87;;;;;;;33.41;27.70;101191.05;1706348;83;21241;-68
2021/07/09 12:29:12;;;;;;;16.48;6.22;;;;;;;33.43;28.50;101189.42;1709157;83;21253;-67
2021/07/09 12:31:47;;;;;;;12.47;6.03;;;;;;;33.48;28.72;101182.66;1710444;83;21535;-68
2021/07/09 12:34:24;;;;;;;18.75;6.08;;;;;;;33.57;29.10;101184.63;1708204;83;21665;-69
2021/07/09 12:37:04;;;;;;;9.35;5.60;;;;;;;33.62;29.08;101178.41;1700036;83;21311;-67
2021/07/09 12:39:37;;;;;;;7.20;5.97;;;;;;;33.61;27.70;101183.55;1721226;81;21245;-66
2021/07/09 12:42:15;;;;;;;9.13;5.75;;;;;;;33.54;27.65;101180.26;1718393;82;21196;-67
2021/07/09 12:44:56;;;;;;;9.63;6.00;;;;;;;33.43;27.22;101171.77;1710590;83;21350;-68
